sensor_id;sensor_type;location;lat;lon;timestamp;temperature;humidity
5796;DHT22;2924;51.458;7.046;2023-04-16T00:00:32;7.10;99.90
5796;DHT22;2924;51.458;7.046;2023-04-16T00:02:58;7.10;99.90
5796;DHT22;2924;51.458;7.046;2023-04-16T00:05:24;7.00;99.90
5796;DHT22;2924;51.458;7.046;2023-04-16T00:07:49;7.00;99.90
5796;DHT22;2924;51.458;7.046;2023-04-16T00:10:16;7.00;99.90
5796;DHT22;2924;51.458;7.046;2023-04-16T00:12:41;7.00;99.90
5796;DHT22;2924;51.458;7.046;2023-04-16T00:15:07;7.00;99.90
5796;DHT22;2924;51.458;7.046;2023-04-16T00:17:33;7.10;99.90
5796;DHT22;2924;51.458;7.046;2023-04-16T00:19:59;7.10;99.90
5796;DHT22;2924;51.458;7.046;2023-04-16T00:22:24;7.10;99.90
5796;DHT22;2924;51.458;7.046;2023-04-16T00:24:50;7.10;99.90
5796;DHT22;2924;51.458;7.046;2023-04-16T00:27:17;7.10;99.90
5796;DHT22;2924;51.458;7.046;2023-04-16T00:29:42;7.00;99.90
5796;DHT22;2924;51.458;7.046;2023-04-16T00:32:08;7.10;99.90
5796;DHT22;2924;51.458;7.046;2023-04-16T00:34:33;7.10;99.90
5796;DHT22;2924;51.458;7.046;2023-04-16T00:36:59;7.10;99.90
5796;DHT22;2924;51.458;7.046;2023-04-16T00:39:25;7.10;99.90
5796;DHT22;2924;51.458;7.046;2023-04-16T00:41:50;7.10;99.90
5796;DHT22;2924;51.458;7.046;2023-04-16T00:44:16;7.10;99.90
5796;DHT22;2924;51.458;7.046;2023-04-16T00:46:41;7.10;99.90
5796;DHT22;2924;51.458;7.046;2023-04-16T00:49:07;7.10;99.90
5796;DHT22;2924;51.458;7.046;2023-04-16T00:51:34;7.10;99.90
5796;DHT22;2924;51.458;7.046;2023-04-16T00:54:00;7.10;99.90
5796;DHT22;2924;51.458;7.046;2023-04-16T00:56:26;7.20;99.90
5796;DHT22;2924;51.458;7.046;2023-04-16T00:58:53;7.20;99.90
5796;DHT22;2924;51.458;7.046;2023-04-16T01:01:19;7.20;99.90
5796;DHT22;2924;51.458;7.046;2023-04-16T01:03:47;7.10;99.90
5796;DHT22;2924;51.458;7.046;2023-04-16T01:06:13;7.20;99.90
5796;DHT22;2924;51.458;7.046;2023-04-16T01:08:39;7.20;99.90
5796;DHT22;2924;51.458;7.046;2023-04-16T01:11:05;7.20;99.90
5796;DHT22;2924;51.458;7.046;2023-04-16T01:13:31;7.20;99.90
5796;DHT22;2924;51.458;7.046;2023-04-16T01:15:58;7.10;99.90
5796;DHT22;2924;51.458;7.046;2023-04-16T01:18:25;7.20;99.90
5796;DHT22;2924;51.458;7.046;2023-04-16T01:20:51;7.20;99.90
5796;DHT22;2924;51.458;7.046;2023-04-16T01:23:17;7.20;99.90
5796;DHT22;2924;51.458;7.046;2023-04-16T01:25:43;7.20;99.90
5796;DHT22;2924;51.458;7.046;2023-04-16T01:28:09;7.20;99.90
5796;DHT22;2924;51.458;7.046;2023-04-16T01:30:35;7.20;99.90
5796;DHT22;2924;51.458;7.046;2023-04-16T01:33:00;7.20;99.90
5796;DHT22;2924;51.458;7.046;2023-04-16T01:35:26;7.20;99.90
5796;DHT22;2924;51.458;7.046;2023-04-16T01:37:51;7.20;99.90
5796;DHT22;2924;51.458;7.046;2023-04-16T01:40:18;7.20;99.90
5796;DHT22;2924;51.458;7.046;2023-04-16T01:42:43;7.30;99.90
5796;DHT22;2924;51.458;7.046;2023-04-16T01:45:09;7.30;99.90
5796;DHT22;2924;51.458;7.046;2023-04-16T01:47:35;7.30;99.90
5796;DHT22;2924;51.458;7.046;2023-04-16T01:50:01;7.30;99.90
5796;DHT22;2924;51.458;7.046;2023-04-16T01:52:27;7.30;99.90
5796;DHT22;2924;51.458;7.046;2023-04-16T01:54:53;7.30;99.90
5796;DHT22;2924;51.458;7.046;2023-04-16T01:57:18;7.30;99.90
5796;DHT22;2924;51.458;7.046;2023-04-16T01:59:44;7.30;99.90
5796;DHT22;2924;51.458;7.046;2023-04-16T02:02:10;7.30;99.90
5796;DHT22;2924;51.458;7.046;2023-04-16T02:04:37;7.30;99.90
5796;DHT22;2924;51.458;7.046;2023-04-16T02:07:04;7.30;99.90
5796;DHT22;2924;51.458;7.046;2023-04-16T02:09:30;7.30;99.90
5796;DHT22;2924;51.458;7.046;2023-04-16T02:11:56;7.30;99.90
5796;DHT22;2924;51.458;7.046;2023-04-16T02:14:21;7.30;99.90
5796;DHT22;2924;51.458;7.046;2023-04-16T02:16:50;7.30;99.90
5796;DHT22;2924;51.458;7.046;2023-04-16T02:19:16;7.30;99.90
5796;DHT22;2924;51.458;7.046;2023-04-16T02:21:42;7.30;99.90
5796;DHT22;2924;51.458;7.046;2023-04-16T02:24:07;7.30;99.90
5796;DHT22;2924;51.458;7.046;2023-04-16T02:26:33;7.30;99.90
5796;DHT22;2924;51.458;7.046;2023-04-16T02:28:58;7.30;99.90
5796;DHT22;2924;51.458;7.046;2023-04-16T02:31:24;7.30;99.90
5796;DHT22;2924;51.458;7.046;2023-04-16T02:33:49;7.40;99.90
5796;DHT22;2924;51.458;7.046;2023-04-16T02:36:15;7.30;99.90
5796;DHT22;2924;51.458;7.046;2023-04-16T02:38:40;7.30;99.90
5796;DHT22;2924;51.458;7.046;2023-04-16T02:41:06;7.40;99.90
5796;DHT22;2924;51.458;7.046;2023-04-16T02:43:31;7.40;99.90
5796;DHT22;2924;51.458;7.046;2023-04-16T02:45:57;7.40;99.90
5796;DHT22;2924;51.458;7.046;2023-04-16T02:48:23;7.30;99.90
5796;DHT22;2924;51.458;7.046;2023-04-16T02:50:49;7.30;99.90
5796;DHT22;2924;51.458;7.046;2023-04-16T02:53:15;7.30;99.90
5796;DHT22;2924;51.458;7.046;2023-04-16T02:55:40;7.30;99.90
5796;DHT22;2924;51.458;7.046;2023-04-16T02:58:06;7.30;99.90
5796;DHT22;2924;51.458;7.046;2023-04-16T03:00:31;7.30;99.90
5796;DHT22;2924;51.458;7.046;2023-04-16T03:02:57;7.30;99.90
5796;DHT22;2924;51.458;7.046;2023-04-16T03:05:23;7.30;99.90
5796;DHT22;2924;51.458;7.046;2023-04-16T03:07:48;7.30;99.90
5796;DHT22;2924;51.458;7.046;2023-04-16T03:10:15;7.30;99.90
5796;DHT22;2924;51.458;7.046;2023-04-16T03:12:41;7.30;99.90
5796;DHT22;2924;51.458;7.046;2023-04-16T03:15:06;7.30;99.90
5796;DHT22;2924;51.458;7.046;2023-04-16T03:17:32;7.30;99.90
5796;DHT22;2924;51.458;7.046;2023-04-16T03:19:58;7.30;99.90
5796;DHT22;2924;51.458;7.046;2023-04-16T03:22:23;7.30;99.90
5796;DHT22;2924;51.458;7.046;2023-04-16T03:24:49;7.40;99.90
5796;DHT22;2924;51.458;7.046;2023-04-16T03:27:15;7.30;99.90
5796;DHT22;2924;51.458;7.046;2023-04-16T03:29:41;7.30;99.90
5796;DHT22;2924;51.458;7.046;2023-04-16T03:32:06;7.40;99.90
5796;DHT22;2924;51.458;7.046;2023-04-16T03:34:32;7.40;99.90
5796;DHT22;2924;51.458;7.046;2023-04-16T03:36:57;7.40;99.90
5796;DHT22;2924;51.458;7.046;2023-04-16T03:39:23;7.40;99.90
5796;DHT22;2924;51.458;7.046;2023-04-16T03:41:49;7.30;99.90
5796;DHT22;2924;51.458;7.046;2023-04-16T03:44:14;7.30;99.90
5796;DHT22;2924;51.458;7.046;2023-04-16T03:46:40;7.40;99.90
5796;DHT22;2924;51.458;7.046;2023-04-16T03:49:05;7.40;99.90
5796;DHT22;2924;51.458;7.046;2023-04-16T03:51:31;7.40;99.90
5796;DHT22;2924;51.458;7.046;2023-04-16T03:53:56;7.40;99.90
5796;DHT22;2924;51.458;7.046;2023-04-16T03:56:22;7.40;99.90
5796;DHT22;2924;51.458;7.046;2023-04-16T03:58:47;7.40;99.90
5796;DHT22;2924;51.458;7.046;2023-04-16T04:01:13;7.40;99.90
5796;DHT22;2924;51.458;7.046;2023-04-16T04:03:38;7.40;99.90
5796;DHT22;2924;51.458;7.046;2023-04-16T04:06:08;7.40;99.90
5796;DHT22;2924;51.458;7.046;2023-04-16T04:08:33;7.40;99.90
5796;DHT22;2924;51.458;7.046;2023-04-16T04:10:59;7.50;99.90
5796;DHT22;2924;51.458;7.046;2023-04-16T04:13:24;7.50;99.90
5796;DHT22;2924;51.458;7.046;2023-04-16T04:15:50;7.50;99.90
5796;DHT22;2924;51.458;7.046;2023-04-16T04:18:16;7.50;99.90
5796;DHT22;2924;51.458;7.046;2023-04-16T04:20:41;7.40;99.90
5796;DHT22;2924;51.458;7.046;2023-04-16T04:23:07;7.50;99.90
5796;DHT22;2924;51.458;7.046;2023-04-16T04:25:32;7.50;99.90
5796;DHT22;2924;51.458;7.046;2023-04-16T04:27:58;7.50;99.90
5796;DHT22;2924;51.458;7.046;2023-04-16T04:30:23;7.50;99.90
5796;DHT22;2924;51.458;7.046;2023-04-16T04:32:49;7.50;99.90
5796;DHT22;2924;51.458;7.046;2023-04-16T04:35:14;7.50;99.90
5796;DHT22;2924;51.458;7.046;2023-04-16T04:37:40;7.50;99.90
5796;DHT22;2924;51.458;7.046;2023-04-16T04:40:06;7.50;99.90
5796;DHT22;2924;51.458;7.046;2023-04-16T04:42:32;7.50;99.90
5796;DHT22;2924;51.458;7.046;2023-04-16T04:44:57;7.50;99.90
5796;DHT22;2924;51.458;7.046;2023-04-16T04:47:23;7.60;99.90
5796;DHT22;2924;51.458;7.046;2023-04-16T04:49:49;7.60;99.90
5796;DHT22;2924;51.458;7.046;2023-04-16T04:52:14;7.60;99.90
5796;DHT22;2924;51.458;7.046;2023-04-16T04:54:40;7.60;99.90
5796;DHT22;2924;51.458;7.046;2023-04-16T04:57:06;7.60;99.90
5796;DHT22;2924;51.458;7.046;2023-04-16T04:59:32;7.60;99.90
5796;DHT22;2924;51.458;7.046;2023-04-16T05:01:58;7.60;99.90
5796;DHT22;2924;51.458;7.046;2023-04-16T05:04:24;7.60;99.90
5796;DHT22;2924;51.458;7.046;2023-04-16T05:06:49;7.60;99.90
5796;DHT22;2924;51.458;7.046;2023-04-16T05:09:15;7.60;99.90
5796;DHT22;2924;51.458;7.046;2023-04-16T05:11:41;7.60;99.90
5796;DHT22;2924;51.458;7.046;2023-04-16T05:14:07;7.60;99.90
5796;DHT22;2924;51.458;7.046;2023-04-16T05:16:35;7.70;99.90
5796;DHT22;2924;51.458;7.046;2023-04-16T05:19:00;7.70;99.90
5796;DHT22;2924;51.458;7.046;2023-04-16T05:21:26;7.70;99.90
5796;DHT22;2924;51.458;7.046;2023-04-16T05:23:52;7.70;99.90
5796;DHT22;2924;51.458;7.046;2023-04-16T05:26:17;7.70;99.90
5796;DHT22;2924;51.458;7.046;2023-04-16T05:28:43;7.70;99.90
5796;DHT22;2924;51.458;7.046;2023-04-16T05:31:08;7.70;99.90
5796;DHT22;2924;51.458;7.046;2023-04-16T05:33:34;7.70;99.90
5796;DHT22;2924;51.458;7.046;2023-04-16T05:36:00;7.70;99.90
5796;DHT22;2924;51.458;7.046;2023-04-16T05:38:25;7.70;99.90
5796;DHT22;2924;51.458;7.046;2023-04-16T05:40:51;7.80;99.90
5796;DHT22;2924;51.458;7.046;2023-04-16T05:43:17;7.80;99.90
5796;DHT22;2924;51.458;7.046;2023-04-16T05:45:42;7.80;99.90
5796;DHT22;2924;51.458;7.046;2023-04-16T05:48:08;7.80;99.90
5796;DHT22;2924;51.458;7.046;2023-04-16T05:50:35;7.80;99.90
5796;DHT22;2924;51.458;7.046;2023-04-16T05:53:01;7.80;99.90
5796;DHT22;2924;51.458;7.046;2023-04-16T05:55:27;7.80;99.90
5796;DHT22;2924;51.458;7.046;2023-04-16T05:57:52;7.80;99.90
5796;DHT22;2924;51.458;7.046;2023-04-16T06:00:18;7.80;99.90
5796;DHT22;2924;51.458;7.046;2023-04-16T06:02:44;7.90;99.90
5796;DHT22;2924;51.458;7.046;2023-04-16T06:05:09;7.90;99.90
5796;DHT22;2924;51.458;7.046;2023-04-16T06:07:35;7.90;99.90
5796;DHT22;2924;51.458;7.046;2023-04-16T06:10:00;7.90;99.90
5796;DHT22;2924;51.458;7.046;2023-04-16T06:12:26;7.80;99.90
5796;DHT22;2924;51.458;7.046;2023-04-16T06:14:51;7.90;99.90
5796;DHT22;2924;51.458;7.046;2023-04-16T06:17:17;7.90;99.90
5796;DHT22;2924;51.458;7.046;2023-04-16T06:19:43;7.80;99.90
5796;DHT22;2924;51.458;7.046;2023-04-16T06:22:09;7.90;99.90
5796;DHT22;2924;51.458;7.046;2023-04-16T06:24:35;8.00;99.90
5796;DHT22;2924;51.458;7.046;2023-04-16T06:27:00;7.90;99.90
5796;DHT22;2924;51.458;7.046;2023-04-16T06:29:27;7.90;99.90
5796;DHT22;2924;51.458;7.046;2023-04-16T06:31:53;7.90;99.90
5796;DHT22;2924;51.458;7.046;2023-04-16T06:34:18;7.90;99.90
5796;DHT22;2924;51.458;7.046;2023-04-16T06:36:44;7.90;99.90
5796;DHT22;2924;51.458;7.046;2023-04-16T06:39:10;7.90;99.90
5796;DHT22;2924;51.458;7.046;2023-04-16T06:41:35;7.90;99.90
5796;DHT22;2924;51.458;7.046;2023-04-16T06:44:01;8.00;99.90
5796;DHT22;2924;51.458;7.046;2023-04-16T06:46:26;8.10;99.90
5796;DHT22;2924;51.458;7.046;2023-04-16T06:48:52;8.10;99.90
5796;DHT22;2924;51.458;7.046;2023-04-16T06:51:17;8.20;99.90
5796;DHT22;2924;51.458;7.046;2023-04-16T06:53:43;8.20;99.90
5796;DHT22;2924;51.458;7.046;2023-04-16T06:56:09;8.20;99.90
5796;DHT22;2924;51.458;7.046;2023-04-16T06:58:34;8.30;99.90
5796;DHT22;2924;51.458;7.046;2023-04-16T07:01:00;8.30;99.90
5796;DHT22;2924;51.458;7.046;2023-04-16T07:03:27;8.40;99.90
5796;DHT22;2924;51.458;7.046;2023-04-16T07:05:52;8.50;99.90
5796;DHT22;2924;51.458;7.046;2023-04-16T07:08:18;8.60;99.90
5796;DHT22;2924;51.458;7.046;2023-04-16T07:10:43;8.60;99.90
5796;DHT22;2924;51.458;7.046;2023-04-16T07:13:09;8.60;99.90
5796;DHT22;2924;51.458;7.046;2023-04-16T07:15:35;8.70;99.90
5796;DHT22;2924;51.458;7.046;2023-04-16T07:18:00;8.80;99.90
5796;DHT22;2924;51.458;7.046;2023-04-16T07:20:26;8.80;99.90
5796;DHT22;2924;51.458;7.046;2023-04-16T07:22:51;8.80;99.90
5796;DHT22;2924;51.458;7.046;2023-04-16T07:25:17;8.80;99.90
5796;DHT22;2924;51.458;7.046;2023-04-16T07:27:43;8.90;99.90
5796;DHT22;2924;51.458;7.046;2023-04-16T07:30:08;9.00;99.90
5796;DHT22;2924;51.458;7.046;2023-04-16T07:32:34;9.10;99.90
5796;DHT22;2924;51.458;7.046;2023-04-16T07:35:00;9.30;99.90
5796;DHT22;2924;51.458;7.046;2023-04-16T07:37:25;9.40;99.90
5796;DHT22;2924;51.458;7.046;2023-04-16T07:39:51;9.40;99.90
5796;DHT22;2924;51.458;7.046;2023-04-16T07:42:17;9.50;99.90
5796;DHT22;2924;51.458;7.046;2023-04-16T07:44:42;9.40;99.90
5796;DHT22;2924;51.458;7.046;2023-04-16T07:47:08;9.40;99.90
5796;DHT22;2924;51.458;7.046;2023-04-16T07:49:34;9.40;99.90
5796;DHT22;2924;51.458;7.046;2023-04-16T07:51:59;9.50;99.90
5796;DHT22;2924;51.458;7.046;2023-04-16T07:54:25;9.50;99.90
5796;DHT22;2924;51.458;7.046;2023-04-16T07:56:51;9.50;99.90
5796;DHT22;2924;51.458;7.046;2023-04-16T07:59:16;9.60;99.90
5796;DHT22;2924;51.458;7.046;2023-04-16T08:01:42;9.70;99.90
5796;DHT22;2924;51.458;7.046;2023-04-16T08:04:07;9.70;99.90
5796;DHT22;2924;51.458;7.046;2023-04-16T08:06:33;9.80;99.90
5796;DHT22;2924;51.458;7.046;2023-04-16T08:08:59;9.80;99.90
5796;DHT22;2924;51.458;7.046;2023-04-16T08:11:24;9.90;99.90
5796;DHT22;2924;51.458;7.046;2023-04-16T08:13:50;10.10;99.90
5796;DHT22;2924;51.458;7.046;2023-04-16T08:16:15;10.40;99.90
5796;DHT22;2924;51.458;7.046;2023-04-16T08:18:41;10.60;99.90
5796;DHT22;2924;51.458;7.046;2023-04-16T08:21:07;10.90;99.90
5796;DHT22;2924;51.458;7.046;2023-04-16T08:23:33;11.10;99.90
5796;DHT22;2924;51.458;7.046;2023-04-16T08:26:00;11.20;99.90
5796;DHT22;2924;51.458;7.046;2023-04-16T08:28:25;11.40;99.90
5796;DHT22;2924;51.458;7.046;2023-04-16T08:30:51;11.50;99.90
5796;DHT22;2924;51.458;7.046;2023-04-16T08:33:16;11.60;99.90
5796;DHT22;2924;51.458;7.046;2023-04-16T08:35:42;11.60;99.90
5796;DHT22;2924;51.458;7.046;2023-04-16T08:38:07;11.60;99.90
5796;DHT22;2924;51.458;7.046;2023-04-16T08:40:36;11.40;99.90
5796;DHT22;2924;51.458;7.046;2023-04-16T08:43:07;11.30;99.90
5796;DHT22;2924;51.458;7.046;2023-04-16T08:45:34;11.10;99.90
5796;DHT22;2924;51.458;7.046;2023-04-16T08:48:01;11.10;99.90
5796;DHT22;2924;51.458;7.046;2023-04-16T08:50:29;11.20;99.90
5796;DHT22;2924;51.458;7.046;2023-04-16T08:52:59;11.30;99.90
5796;DHT22;2924;51.458;7.046;2023-04-16T08:55:35;11.50;99.90
5796;DHT22;2924;51.458;7.046;2023-04-16T08:58:39;11.70;99.90
5796;DHT22;2924;51.458;7.046;2023-04-16T09:01:01;12.00;99.90
5796;DHT22;2924;51.458;7.046;2023-04-16T09:03:29;12.30;99.90
5796;DHT22;2924;51.458;7.046;2023-04-16T09:05:55;12.30;99.90
5796;DHT22;2924;51.458;7.046;2023-04-16T09:08:24;12.20;99.90
5796;DHT22;2924;51.458;7.046;2023-04-16T09:10:50;12.10;99.90
5796;DHT22;2924;51.458;7.046;2023-04-16T09:13:16;12.10;99.90
5796;DHT22;2924;51.458;7.046;2023-04-16T09:15:45;12.10;99.90
5796;DHT22;2924;51.458;7.046;2023-04-16T09:18:10;12.10;99.90
5796;DHT22;2924;51.458;7.046;2023-04-16T09:20:37;12.10;99.90
5796;DHT22;2924;51.458;7.046;2023-04-16T09:23:03;12.10;99.90
5796;DHT22;2924;51.458;7.046;2023-04-16T09:25:32;12.10;99.90
5796;DHT22;2924;51.458;7.046;2023-04-16T09:27:59;12.10;99.90
5796;DHT22;2924;51.458;7.046;2023-04-16T09:30:26;11.90;99.90
5796;DHT22;2924;51.458;7.046;2023-04-16T09:33:10;11.70;99.90
5796;DHT22;2924;51.458;7.046;2023-04-16T09:35:53;11.60;99.90
5796;DHT22;2924;51.458;7.046;2023-04-16T09:38:19;11.50;99.90
5796;DHT22;2924;51.458;7.046;2023-04-16T09:40:45;11.50;99.90
5796;DHT22;2924;51.458;7.046;2023-04-16T09:43:16;11.60;99.90
5796;DHT22;2924;51.458;7.046;2023-04-16T09:45:52;11.70;99.90
5796;DHT22;2924;51.458;7.046;2023-04-16T09:48:31;11.90;99.90
5796;DHT22;2924;51.458;7.046;2023-04-16T09:50:57;12.20;99.90
5796;DHT22;2924;51.458;7.046;2023-04-16T09:53:33;12.50;99.90
5796;DHT22;2924;51.458;7.046;2023-04-16T09:56:00;13.00;99.90
5796;DHT22;2924;51.458;7.046;2023-04-16T09:58:26;13.40;99.90
5796;DHT22;2924;51.458;7.046;2023-04-16T10:01:00;13.40;99.90
5796;DHT22;2924;51.458;7.046;2023-04-16T10:03:30;13.70;99.90
5796;DHT22;2924;51.458;7.046;2023-04-16T10:06:19;14.00;99.90
5796;DHT22;2924;51.458;7.046;2023-04-16T10:08:50;14.30;99.90
5796;DHT22;2924;51.458;7.046;2023-04-16T10:11:17;14.60;99.90
5796;DHT22;2924;51.458;7.046;2023-04-16T10:13:43;15.00;99.90
5796;DHT22;2924;51.458;7.046;2023-04-16T10:16:10;15.30;99.90
5796;DHT22;2924;51.458;7.046;2023-04-16T10:18:37;15.50;99.90
5796;DHT22;2924;51.458;7.046;2023-04-16T10:21:04;15.60;99.90
5796;DHT22;2924;51.458;7.046;2023-04-16T10:23:31;15.50;99.90
5796;DHT22;2924;51.458;7.046;2023-04-16T10:25:58;15.50;99.90
5796;DHT22;2924;51.458;7.046;2023-04-16T10:28:24;15.40;99.90
5796;DHT22;2924;51.458;7.046;2023-04-16T10:30:51;15.50;99.90
5796;DHT22;2924;51.458;7.046;2023-04-16T10:33:26;15.40;99.90
5796;DHT22;2924;51.458;7.046;2023-04-16T10:35:52;15.30;99.90
5796;DHT22;2924;51.458;7.046;2023-04-16T10:38:31;15.60;99.90
5796;DHT22;2924;51.458;7.046;2023-04-16T10:41:04;15.80;99.90
5796;DHT22;2924;51.458;7.046;2023-04-16T10:43:31;15.80;99.90
5796;DHT22;2924;51.458;7.046;2023-04-16T10:46:26;16.00;99.90
5796;DHT22;2924;51.458;7.046;2023-04-16T10:48:58;16.20;99.90
5796;DHT22;2924;51.458;7.046;2023-04-16T10:51:30;16.60;99.90
5796;DHT22;2924;51.458;7.046;2023-04-16T10:56:44;17.50;99.90
5796;DHT22;2924;51.458;7.046;2023-04-16T10:59:10;18.00;99.90
5796;DHT22;2924;51.458;7.046;2023-04-16T11:01:41;18.30;99.90
5796;DHT22;2924;51.458;7.046;2023-04-16T11:09:48;17.00;99.90
5796;DHT22;2924;51.458;7.046;2023-04-16T11:12:17;16.60;99.90
5796;DHT22;2924;51.458;7.046;2023-04-16T11:14:50;16.70;99.90
5796;DHT22;2924;51.458;7.046;2023-04-16T11:17:17;17.10;99.90
5796;DHT22;2924;51.458;7.046;2023-04-16T11:19:43;17.60;99.90
5796;DHT22;2924;51.458;7.046;2023-04-16T11:22:12;18.10;99.90
5796;DHT22;2924;51.458;7.046;2023-04-16T11:24:38;18.50;99.90
5796;DHT22;2924;51.458;7.046;2023-04-16T11:27:06;19.10;99.90
5796;DHT22;2924;51.458;7.046;2023-04-16T11:29:31;19.70;99.90
5796;DHT22;2924;51.458;7.046;2023-04-16T11:31:57;19.80;99.90
5796;DHT22;2924;51.458;7.046;2023-04-16T11:34:22;19.90;99.90
5796;DHT22;2924;51.458;7.046;2023-04-16T11:36:49;20.10;99.90
5796;DHT22;2924;51.458;7.046;2023-04-16T11:39:15;19.90;99.90
5796;DHT22;2924;51.458;7.046;2023-04-16T11:41:50;19.70;99.90
5796;DHT22;2924;51.458;7.046;2023-04-16T11:44:23;19.30;99.90
5796;DHT22;2924;51.458;7.046;2023-04-16T11:46:50;18.90;99.90
5796;DHT22;2924;51.458;7.046;2023-04-16T11:49:16;18.60;99.90
5796;DHT22;2924;51.458;7.046;2023-04-16T11:51:45;18.40;99.90
5796;DHT22;2924;51.458;7.046;2023-04-16T11:54:21;18.10;99.90
5796;DHT22;2924;51.458;7.046;2023-04-16T11:56:48;18.20;99.90
5796;DHT22;2924;51.458;7.046;2023-04-16T11:59:18;18.40;99.90
5796;DHT22;2924;51.458;7.046;2023-04-16T12:01:47;18.50;99.90
5796;DHT22;2924;51.458;7.046;2023-04-16T12:04:14;18.60;99.90
5796;DHT22;2924;51.458;7.046;2023-04-16T12:09:25;17.60;99.90
5796;DHT22;2924;51.458;7.046;2023-04-16T12:11:52;17.00;99.90
5796;DHT22;2924;51.458;7.046;2023-04-16T12:14:17;16.80;99.90
5796;DHT22;2924;51.458;7.046;2023-04-16T12:16:43;16.70;99.90
5796;DHT22;2924;51.458;7.046;2023-04-16T12:19:10;16.60;99.90
5796;DHT22;2924;51.458;7.046;2023-04-16T12:24:03;16.60;99.90
5796;DHT22;2924;51.458;7.046;2023-04-16T12:26:56;16.50;99.90
5796;DHT22;2924;51.458;7.046;2023-04-16T12:29:23;16.40;99.90
5796;DHT22;2924;51.458;7.046;2023-04-16T12:31:50;16.40;99.90
5796;DHT22;2924;51.458;7.046;2023-04-16T12:34:17;16.40;99.90
5796;DHT22;2924;51.458;7.046;2023-04-16T12:36:44;16.50;99.90
5796;DHT22;2924;51.458;7.046;2023-04-16T12:39:11;16.50;99.90
5796;DHT22;2924;51.458;7.046;2023-04-16T12:41:38;16.40;99.90
5796;DHT22;2924;51.458;7.046;2023-04-16T12:44:22;16.40;99.90
5796;DHT22;2924;51.458;7.046;2023-04-16T12:46:48;16.50;99.90
5796;DHT22;2924;51.458;7.046;2023-04-16T12:49:13;16.60;99.90
5796;DHT22;2924;51.458;7.046;2023-04-16T12:51:39;16.50;99.90
5796;DHT22;2924;51.458;7.046;2023-04-16T12:54:06;16.40;99.90
5796;DHT22;2924;51.458;7.046;2023-04-16T12:56:32;16.50;99.90
5796;DHT22;2924;51.458;7.046;2023-04-16T12:58:58;16.60;99.90
5796;DHT22;2924;51.458;7.046;2023-04-16T13:01:24;16.70;99.90
5796;DHT22;2924;51.458;7.046;2023-04-16T13:03:49;17.00;99.90
5796;DHT22;2924;51.458;7.046;2023-04-16T13:06:16;17.40;99.90
5796;DHT22;2924;51.458;7.046;2023-04-16T13:08:43;17.60;99.90
5796;DHT22;2924;51.458;7.046;2023-04-16T13:11:09;17.60;99.90
5796;DHT22;2924;51.458;7.046;2023-04-16T13:13:35;17.50;99.90
5796;DHT22;2924;51.458;7.046;2023-04-16T13:16:00;17.50;99.90
5796;DHT22;2924;51.458;7.046;2023-04-16T13:18:28;17.40;99.90
5796;DHT22;2924;51.458;7.046;2023-04-16T13:20:54;17.30;99.90
5796;DHT22;2924;51.458;7.046;2023-04-16T13:23:20;17.20;99.90
5796;DHT22;2924;51.458;7.046;2023-04-16T13:25:45;17.30;99.90
5796;DHT22;2924;51.458;7.046;2023-04-16T13:28:11;17.40;99.90
5796;DHT22;2924;51.458;7.046;2023-04-16T13:30:37;17.60;99.90
5796;DHT22;2924;51.458;7.046;2023-04-16T13:33:02;17.80;99.90
5796;DHT22;2924;51.458;7.046;2023-04-16T13:35:28;18.00;99.90
5796;DHT22;2924;51.458;7.046;2023-04-16T13:37:54;18.20;99.90
5796;DHT22;2924;51.458;7.046;2023-04-16T13:40:19;18.50;99.90
5796;DHT22;2924;51.458;7.046;2023-04-16T13:42:45;18.70;99.90
5796;DHT22;2924;51.458;7.046;2023-04-16T13:45:11;18.60;99.90
5796;DHT22;2924;51.458;7.046;2023-04-16T13:47:39;18.50;99.90
5796;DHT22;2924;51.458;7.046;2023-04-16T13:50:06;18.20;99.90
5796;DHT22;2924;51.458;7.046;2023-04-16T13:52:32;17.90;99.90
5796;DHT22;2924;51.458;7.046;2023-04-16T13:54:57;17.50;99.90
5796;DHT22;2924;51.458;7.046;2023-04-16T13:57:23;17.20;99.90
5796;DHT22;2924;51.458;7.046;2023-04-16T13:59:49;16.90;99.90
5796;DHT22;2924;51.458;7.046;2023-04-16T14:02:14;16.70;99.90
5796;DHT22;2924;51.458;7.046;2023-04-16T14:04:40;16.50;99.90
5796;DHT22;2924;51.458;7.046;2023-04-16T14:07:06;16.40;99.90
5796;DHT22;2924;51.458;7.046;2023-04-16T14:09:31;16.40;99.90
5796;DHT22;2924;51.458;7.046;2023-04-16T14:11:57;16.10;99.90
5796;DHT22;2924;51.458;7.046;2023-04-16T14:14:23;16.00;99.90
5796;DHT22;2924;51.458;7.046;2023-04-16T14:16:48;15.90;99.90
5796;DHT22;2924;51.458;7.046;2023-04-16T14:19:14;15.80;99.90
5796;DHT22;2924;51.458;7.046;2023-04-16T14:21:40;15.80;99.90
5796;DHT22;2924;51.458;7.046;2023-04-16T14:24:06;15.90;99.90
5796;DHT22;2924;51.458;7.046;2023-04-16T14:26:33;16.00;99.90
5796;DHT22;2924;51.458;7.046;2023-04-16T14:29:00;16.00;99.90
5796;DHT22;2924;51.458;7.046;2023-04-16T14:31:25;15.90;99.90
5796;DHT22;2924;51.458;7.046;2023-04-16T14:33:51;15.80;99.90
5796;DHT22;2924;51.458;7.046;2023-04-16T14:36:17;15.80;99.90
5796;DHT22;2924;51.458;7.046;2023-04-16T14:38:42;15.90;99.90
5796;DHT22;2924;51.458;7.046;2023-04-16T14:41:08;15.90;99.90
5796;DHT22;2924;51.458;7.046;2023-04-16T14:43:35;15.90;99.90
5796;DHT22;2924;51.458;7.046;2023-04-16T14:46:00;15.90;99.90
5796;DHT22;2924;51.458;7.046;2023-04-16T14:48:28;16.10;99.90
5796;DHT22;2924;51.458;7.046;2023-04-16T14:50:53;16.10;99.90
5796;DHT22;2924;51.458;7.046;2023-04-16T14:53:19;16.30;99.90
5796;DHT22;2924;51.458;7.046;2023-04-16T14:55:44;16.50;99.90
5796;DHT22;2924;51.458;7.046;2023-04-16T14:58:10;16.90;99.90
5796;DHT22;2924;51.458;7.046;2023-04-16T15:00:36;17.20;99.90
5796;DHT22;2924;51.458;7.046;2023-04-16T15:03:01;17.10;99.90
5796;DHT22;2924;51.458;7.046;2023-04-16T15:05:28;17.00;99.90
5796;DHT22;2924;51.458;7.046;2023-04-16T15:07:54;16.80;99.90
5796;DHT22;2924;51.458;7.046;2023-04-16T15:10:19;17.00;99.90
5796;DHT22;2924;51.458;7.046;2023-04-16T15:12:45;17.20;99.90
5796;DHT22;2924;51.458;7.046;2023-04-16T15:15:10;17.40;99.90
5796;DHT22;2924;51.458;7.046;2023-04-16T15:17:36;17.60;99.90
5796;DHT22;2924;51.458;7.046;2023-04-16T15:20:01;17.70;99.90
5796;DHT22;2924;51.458;7.046;2023-04-16T15:22:32;17.90;99.90
5796;DHT22;2924;51.458;7.046;2023-04-16T15:24:58;18.10;99.90
5796;DHT22;2924;51.458;7.046;2023-04-16T15:27:23;18.70;99.90
5796;DHT22;2924;51.458;7.046;2023-04-16T15:29:49;19.20;99.90
5796;DHT22;2924;51.458;7.046;2023-04-16T15:32:15;19.40;99.90
5796;DHT22;2924;51.458;7.046;2023-04-16T15:34:41;19.60;99.90
5796;DHT22;2924;51.458;7.046;2023-04-16T15:37:06;19.40;99.90
5796;DHT22;2924;51.458;7.046;2023-04-16T15:39:32;18.90;99.90
5796;DHT22;2924;51.458;7.046;2023-04-16T15:41:58;18.70;99.90
5796;DHT22;2924;51.458;7.046;2023-04-16T15:44:23;18.50;99.90
5796;DHT22;2924;51.458;7.046;2023-04-16T15:46:49;18.10;99.90
5796;DHT22;2924;51.458;7.046;2023-04-16T15:49:14;17.90;99.90
5796;DHT22;2924;51.458;7.046;2023-04-16T15:51:40;17.60;99.90
5796;DHT22;2924;51.458;7.046;2023-04-16T15:54:06;17.10;99.90
5796;DHT22;2924;51.458;7.046;2023-04-16T15:56:31;16.60;99.90
5796;DHT22;2924;51.458;7.046;2023-04-16T15:58:57;16.20;99.90
5796;DHT22;2924;51.458;7.046;2023-04-16T16:01:23;16.00;99.90
5796;DHT22;2924;51.458;7.046;2023-04-16T16:03:48;16.00;99.90
5796;DHT22;2924;51.458;7.046;2023-04-16T16:06:14;15.90;99.90
5796;DHT22;2924;51.458;7.046;2023-04-16T16:08:42;15.80;99.90
5796;DHT22;2924;51.458;7.046;2023-04-16T16:11:07;15.70;99.90
5796;DHT22;2924;51.458;7.046;2023-04-16T16:13:33;15.60;99.90
5796;DHT22;2924;51.458;7.046;2023-04-16T16:16:00;15.30;99.90
5796;DHT22;2924;51.458;7.046;2023-04-16T16:18:26;15.10;99.90